Time;durP1;ratioP1;P1;durP2;ratioP2;P2;SDS_P1;SDS_P2;PMS_P1;PMS_P2;Temp;Humidity;BMP_temperature;BMP_pressure;BME280_temperature;BME280_humidity;BME280_pressure;Samples;Min_cycle;Max_cycle;Signal;HPM_P1;HPM_P2
2024/02/04 00:01:06;;;;;;;0.75;0.20;;;;;;;10.72;90.76;101057.59;10398467;28;20699;-62
2024/02/04 00:06:10;;;;;;;0.60;0.30;;;;;;;10.75;91.00;101044.09;10409647;28;20140;-60
2024/02/04 00:11:13;;;;;;;0.70;0.20;;;;;;;10.76;91.42;101048.44;10374166;28;20048;-62
2024/02/04 00:16:15;;;;;;;0.60;0.10;;;;;;;10.81;92.00;101046.34;10377412;28;20053;-62
2024/02/04 00:21:16;;;;;;;1.27;0.40;;;;;;;10.78;92.42;101043.88;10359220;28;20115;-63
2024/02/04 00:26:18;;;;;;;0.98;0.30;;;;;;;10.67;93.05;101011.81;10378468;28;20124;-64
2024/02/04 00:31:19;;;;;;;1.05;0.43;;;;;;;10.72;93.92;101039.81;10389781;28;20136;-62
2024/02/04 00:36:21;;;;;;;1.38;0.20;;;;;;;10.47;93.58;100987.41;10391684;28;20065;-65
2024/02/04 00:41:23;;;;;;;1.48;0.22;;;;;;;10.69;93.84;101018.75;10386105;28;20432;-62
2024/02/04 00:46:24;;;;;;;1.25;0.30;;;;;;;10.67;93.69;101020.63;10387664;28;20128;-63
2024/02/04 00:51:25;;;;;;;0.68;0.20;;;;;;;10.62;93.88;101017.44;10393576;28;20798;-63
2024/02/04 00:56:27;;;;;;;0.88;0.20;;;;;;;10.57;93.95;101012.44;10379904;28;20087;-61
2024/02/04 01:01:28;;;;;;;0.50;0.30;;;;;;;10.28;95.25;100982.44;10374260;28;20056;-63
2024/02/04 01:06:30;;;;;;;0.47;0.28;;;;;;;10.50;94.51;101008.47;10386840;28;20049;-65
2024/02/04 01:11:43;;;;;;;0.28;0.20;;;;;;;10.49;94.87;101028.06;10388879;28;20049;-62
2024/02/04 01:16:45;;;;;;;0.95;0.20;;;;;;;10.49;94.23;101006.78;10385234;28;20062;-63
2024/02/04 01:21:46;;;;;;;0.35;0.10;;;;;;;10.52;94.79;101017.22;10378349;28;20056;-62
2024/02/04 01:26:48;;;;;;;0.40;0.20;;;;;;;10.46;94.87;101006.97;10392188;28;20049;-61
2024/02/04 01:31:49;;;;;;;0.75;0.20;;;;;;;10.42;94.87;101000.19;10397075;28;20089;-62
2024/02/04 01:36:50;;;;;;;0.20;0.10;;;;;;;10.41;94.42;101009.13;10403395;28;20053;-60
2024/02/04 01:41:52;;;;;;;0.40;0.10;;;;;;;10.51;94.43;101034.16;10372354;28;20135;-61
2024/02/04 01:46:54;;;;;;;0.30;0.10;;;;;;;10.57;94.72;101028.41;10388076;28;20167;-63
2024/02/04 01:51:57;;;;;;;1.42;0.20;;;;;;;10.59;94.81;101029.16;10381936;28;20049;-63
2024/02/04 01:57:02;;;;;;;0.43;0.10;;;;;;;10.52;95.08;101046.50;10402812;28;20115;-63
2024/02/04 02:02:05;;;;;;;0.20;0.10;;;;;;;10.58;95.31;101040.78;10403053;28;20045;-63
2024/02/04 02:07:09;;;;;;;0.30;0.00;;;;;;;10.51;95.29;101028.84;10393964;28;20041;-61
2024/02/04 02:12:17;;;;;;;0.35;0.10;;;;;;;10.51;96.34;101026.16;10393711;28;20055;-63
2024/02/04 02:17:25;;;;;;;0.20;0.10;;;;;;;10.42;97.85;101021.47;10383873;28;20739;-63
2024/02/04 02:22:30;;;;;;;0.43;0.10;;;;;;;10.43;98.59;101020.50;10400051;28;20044;-63
2024/02/04 02:27:31;;;;;;;0.65;0.28;;;;;;;10.37;99.05;101018.25;10394356;28;20056;-61
2024/02/04 02:32:33;;;;;;;0.55;0.15;;;;;;;10.34;100.00;101008.66;10395727;28;20051;-65
2024/02/04 02:37:41;;;;;;;0.52;0.10;;;;;;;10.33;100.00;101003.41;10388288;28;20056;-64
2024/02/04 02:42:43;;;;;;;1.10;0.20;;;;;;;10.29;100.00;100999.28;10392227;28;20052;-64
2024/02/04 02:47:45;;;;;;;0.30;0.10;;;;;;;10.13;100.00;100973.69;10394693;28;20582;-64
2024/02/04 02:52:47;;;;;;;0.52;0.10;;;;;;;10.13;100.00;100984.31;10396292;28;20114;-64
2024/02/04 02:57:49;;;;;;;0.30;0.10;;;;;;;10.09;100.00;100972.19;10395794;28;20490;-64
2024/02/04 03:02:50;;;;;;;0.50;0.20;;;;;;;9.98;100.00;100980.03;10393467;28;20057;-63
2024/02/04 03:07:52;;;;;;;0.95;0.20;;;;;;;9.99;100.00;100968.44;10397734;28;20052;-64
2024/02/04 03:12:53;;;;;;;0.50;0.20;;;;;;;9.86;100.00;100955.09;10400076;28;20041;-65
2024/02/04 03:17:55;;;;;;;0.77;0.52;;;;;;;9.83;100.00;100963.28;10394338;28;20052;-65
2024/02/04 03:22:56;;;;;;;0.30;0.20;;;;;;;9.78;100.00;100968.91;10397814;28;20053;-65
2024/02/04 03:27:58;;;;;;;0.47;0.40;;;;;;;9.82;100.00;100959.78;10389851;28;20127;-64
2024/02/04 03:32:59;;;;;;;0.60;0.30;;;;;;;9.86;100.00;100977.25;10390989;28;20045;-65
2024/02/04 03:38:01;;;;;;;0.65;0.35;;;;;;;9.84;100.00;100959.69;10377045;28;21009;-63
2024/02/04 03:43:03;;;;;;;0.90;0.40;;;;;;;9.80;100.00;100956.34;10378622;28;20060;-64
2024/02/04 03:48:05;;;;;;;1.30;0.30;;;;;;;9.71;100.00;100935.69;10387417;28;20503;-65
2024/02/04 03:53:08;;;;;;;0.32;0.20;;;;;;;9.79;100.00;100954.66;10386527;28;20060;-64
2024/02/04 03:58:09;;;;;;;0.30;0.30;;;;;;;9.79;100.00;100938.72;10386256;28;20518;-64
2024/02/04 04:03:11;;;;;;;0.90;0.30;;;;;;;9.76;100.00;100935.38;10387843;28;20046;-64
2024/02/04 04:08:13;;;;;;;1.48;0.50;;;;;;;9.39;100.00;100909.44;10386357;28;20064;-63
2024/02/04 04:13:14;;;;;;;0.77;0.40;;;;;;;9.65;100.00;100952.06;10376923;28;20128;-64
2024/02/04 04:18:15;;;;;;;0.70;0.40;;;;;;;9.55;100.00;100938.53;10391723;28;20243;-63
2024/02/04 04:23:17;;;;;;;0.70;0.40;;;;;;;9.67;100.00;100944.84;10392582;28;20615;-63
2024/02/04 04:28:19;;;;;;;0.95;0.45;;;;;;;9.70;100.00;100950.81;10377598;28;20056;-64
2024/02/04 04:33:20;;;;;;;0.40;0.15;;;;;;;9.73;100.00;100955.06;10386701;28;20088;-64
2024/02/04 04:38:22;;;;;;;0.50;0.30;;;;;;;9.69;100.00;100942.94;10391798;28;20139;-64
2024/02/04 04:43:23;;;;;;;1.67;0.40;;;;;;;9.75;100.00;100952.31;10392401;28;20061;-63
2024/02/04 04:48:25;;;;;;;1.08;0.32;;;;;;;9.72;100.00;100951.53;10412713;28;20056;-64
2024/02/04 04:53:27;;;;;;;1.38;0.30;;;;;;;9.75;100.00;100942.53;10387889;28;20630;-64
2024/02/04 04:58:28;;;;;;;0.25;0.10;;;;;;;9.77;100.00;100956.56;10371767;28;20535;-65
2024/02/04 05:03:30;;;;;;;0.85;0.30;;;;;;;9.86;100.00;100955.97;10389876;28;20667;-65
2024/02/04 05:08:31;;;;;;;0.45;0.15;;;;;;;9.85;100.00;100954.25;10383181;28;20045;-63
2024/02/04 05:13:33;;;;;;;0.98;0.13;;;;;;;9.91;100.00;100945.88;10382595;28;20048;-63
2024/02/04 05:18:35;;;;;;;0.20;0.10;;;;;;;9.94;100.00;100950.13;10392886;28;20049;-64
2024/02/04 05:23:37;;;;;;;1.00;0.20;;;;;;;9.78;100.00;100905.09;10372761;28;20053;-63
2024/02/04 05:28:39;;;;;;;1.35;0.22;;;;;;;9.98;100.00;100943.63;10367520;28;20052;-64
2024/02/04 05:33:40;;;;;;;0.63;0.20;;;;;;;9.93;100.00;100932.47;10371128;28;20067;-64
2024/02/04 05:38:45;;;;;;;0.52;0.10;;;;;;;10.04;100.00;100939.72;10388230;28;20146;-64
2024/02/04 05:43:46;;;;;;;1.05;0.22;;;;;;;9.98;100.00;100956.09;10371538;28;20065;-64
2024/02/04 05:48:49;;;;;;;1.17;0.17;;;;;;;9.97;100.00;100938.41;10380704;28;20758;-65
2024/02/04 05:53:51;;;;;;;2.03;0.10;;;;;;;9.96;100.00;100936.75;10385213;28;20052;-63
2024/02/04 05:58:52;;;;;;;1.02;0.20;;;;;;;10.05;100.00;100949.41;10387541;28;20049;-65
2024/02/04 06:03:54;;;;;;;0.63;0.15;;;;;;;10.04;100.00;100939.72;10386675;28;20542;-65
2024/02/04 06:08:56;;;;;;;0.38;0.10;;;;;;;10.03;100.00;100938.03;10386104;28;20061;-64
2024/02/04 06:13:57;;;;;;;0.30;0.08;;;;;;;10.06;100.00;100937.84;10375785;28;20136;-66
2024/02/04 06:18:59;;;;;;;0.38;0.10;;;;;;;9.99;100.00;100929.41;10393595;28;20046;-65
2024/02/04 06:24:01;;;;;;;0.73;0.00;;;;;;;10.04;100.00;100932.63;10398494;28;20041;-65
2024/02/04 06:29:02;;;;;;;0.30;0.00;;;;;;;10.03;100.00;100930.06;10367982;28;20123;-64
2024/02/04 06:34:03;;;;;;;0.68;0.00;;;;;;;10.10;100.00;100933.97;10397340;28;20053;-64
2024/02/04 06:39:08;;;;;;;0.20;0.10;;;;;;;10.05;100.00;100930.78;10391940;28;20053;-65
2024/02/04 06:44:12;;;;;;;0.30;0.00;;;;;;;10.04;100.00;100921.09;10381338;28;20147;-65
2024/02/04 06:49:18;;;;;;;0.70;0.00;;;;;;;10.07;100.00;100916.44;10379924;28;20060;-65
2024/02/04 06:54:20;;;;;;;0.45;0.00;;;;;;;10.07;100.00;100915.56;10392607;28;20057;-63
2024/02/04 06:59:22;;;;;;;0.03;0.00;;;;;;;10.07;100.00;100920.88;10388908;28;20131;-65
2024/02/04 07:04:28;;;;;;;0.88;0.10;;;;;;;10.07;100.00;100916.44;10382287;28;20049;-64
2024/02/04 07:09:29;;;;;;;0.32;0.10;;;;;;;10.06;100.00;100906.75;10391891;28;20045;-65
2024/02/04 07:14:30;;;;;;;0.40;0.10;;;;;;;10.05;100.00;100913.03;10388530;28;20064;-64
2024/02/04 07:19:32;;;;;;;0.25;0.00;;;;;;;10.14;100.00;100916.03;10392471;28;20103;-64
2024/02/04 07:24:35;;;;;;;0.73;0.10;;;;;;;10.17;100.00;100921.97;10346503;28;20053;-63
2024/02/04 07:29:38;;;;;;;0.10;0.00;;;;;;;10.20;100.00;100931.56;10388190;28;20049;-64
2024/02/04 07:34:39;;;;;;;0.50;0.10;;;;;;;10.23;100.00;100942.84;10397390;28;20045;-64
2024/02/04 07:39:41;;;;;;;0.40;0.00;;;;;;;10.19;100.00;100936.03;10376626;28;20108;-65
2024/02/04 07:44:45;;;;;;;0.70;0.00;;;;;;;10.26;100.00;100947.94;10387330;28;20080;-65
2024/02/04 07:49:50;;;;;;;0.85;0.00;;;;;;;10.25;100.00;100946.25;10382062;28;20080;-64
2024/02/04 07:54:52;;;;;;;0.10;0.00;;;;;;;10.18;100.00;100937.00;10376720;28;20356;-63
2024/02/04 07:59:53;;;;;;;1.08;0.28;;;;;;;10.19;100.00;100920.09;10393707;28;20052;-64
2024/02/04 08:04:54;;;;;;;0.30;0.03;;;;;;;10.19;100.00;100925.41;10368755;28;20609;-64
2024/02/04 08:09:57;;;;;;;0.88;0.08;;;;;;;10.22;100.00;100922.53;10387017;28;20091;-64
2024/02/04 08:14:58;;;;;;;0.32;0.10;;;;;;;10.21;100.00;100936.78;10388820;28;20048;-64
2024/02/04 08:19:59;;;;;;;0.20;0.00;;;;;;;10.25;100.00;100924.97;10390476;28;20055;-64
2024/02/04 08:25:02;;;;;;;0.13;0.10;;;;;;;10.29;100.00;100936.25;10391910;28;20313;-65
2024/02/04 08:30:04;;;;;;;0.38;0.10;;;;;;;10.26;100.00;100916.03;10373979;28;20134;-64
2024/02/04 08:35:06;;;;;;;1.60;0.10;;;;;;;10.32;100.00;100927.22;10382578;28;20102;-65
2024/02/04 08:40:09;;;;;;;0.15;0.10;;;;;;;10.32;100.00;100920.06;10374045;28;20059;-63
2024/02/04 08:45:11;;;;;;;0.10;0.00;;;;;;;10.39;100.00;100917.88;10392686;28;20549;-65
2024/02/04 08:50:13;;;;;;;0.65;0.35;;;;;;;10.51;100.00;100925.03;10387217;28;20060;-65
2024/02/04 08:55:15;;;;;;;0.68;0.10;;;;;;;10.61;100.00;100915.44;10386415;28;20640;-64
2024/02/04 09:00:17;;;;;;;0.20;0.10;;;;;;;10.62;100.00;100910.94;10379740;28;20548;-62
2024/02/04 09:05:20;;;;;;;0.40;0.10;;;;;;;10.59;100.00;100917.34;10393773;28;20060;-64
2024/02/04 09:10:22;;;;;;;0.10;0.10;;;;;;;10.67;100.00;100913.28;10390185;28;20127;-65
2024/02/04 09:15:23;;;;;;;1.83;0.68;;;;;;;10.67;100.00;100932.75;10371284;28;20057;-64
2024/02/04 09:20:24;;;;;;;0.20;0.00;;;;;;;10.66;100.00;100925.75;10384353;28;20200;-64
2024/02/04 09:25:26;;;;;;;0.95;0.05;;;;;;;10.65;100.00;100925.88;10390271;28;20049;-64
2024/02/04 09:30:27;;;;;;;0.28;0.05;;;;;;;10.63;100.00;100920.66;10389777;28;20353;-64
2024/02/04 09:35:30;;;;;;;0.20;0.00;;;;;;;10.65;100.00;100901.91;10388604;28;20369;-65
2024/02/04 09:40:33;;;;;;;0.20;0.03;;;;;;;10.75;100.00;100900.31;10385191;28;20049;-65
2024/02/04 09:45:38;;;;;;;0.73;0.00;;;;;;;10.82;100.00;100896.22;10384573;28;20045;-64
2024/02/04 09:50:40;;;;;;;0.77;0.00;;;;;;;10.88;100.00;100903.75;10391293;28;20635;-63
2024/02/04 09:55:43;;;;;;;1.27;0.10;;;;;;;10.90;100.00;100901.00;10393055;28;20215;-64
2024/02/04 10:00:47;;;;;;;3.10;1.20;;;;;;;10.89;100.00;100894.81;10384787;28;20055;-65
2024/02/04 10:05:48;;;;;;;0.47;0.10;;;;;;;10.92;100.00;100921.25;10393818;28;20844;-62
2024/02/04 10:10:50;;;;;;;0.20;0.00;;;;;;;10.90;100.00;100893.00;10379719;28;20053;-64
2024/02/04 10:15:56;;;;;;;0.35;0.05;;;;;;;10.92;99.40;100918.56;10395154;28;20435;-62
2024/02/04 10:20:58;;;;;;;0.10;0.00;;;;;;;10.91;98.92;100890.25;10397189;28;20519;-63
2024/02/04 10:26:00;;;;;;;0.20;0.13;;;;;;;11.00;98.47;100920.69;10395633;28;20049;-62
2024/02/04 10:31:11;;;;;;;0.50;0.32;;;;;;;11.05;98.55;100913.22;10382110;28;20050;-62
2024/02/04 10:36:15;;;;;;;0.40;0.20;;;;;;;11.06;98.39;100898.09;10374604;28;20057;-63
2024/02/04 10:41:18;;;;;;;0.95;0.10;;;;;;;11.10;98.39;100878.25;10372620;28;20234;-62
2024/02/04 10:46:22;;;;;;;0.15;0.10;;;;;;;11.11;99.22;100891.47;10394615;28;20135;-63
2024/02/04 10:51:28;;;;;;;0.40;0.10;;;;;;;11.15;98.00;100884.09;10381926;28;20144;-64
2024/02/04 10:56:44;;;;;;;0.20;0.10;;;;;;;11.14;97.38;100879.75;10390252;28;20049;-63
2024/02/04 11:01:48;;;;;;;0.70;0.10;;;;;;;11.07;98.61;100862.50;10373358;28;20071;-65
2024/02/04 11:06:53;;;;;;;0.22;0.10;;;;;;;11.08;99.55;100869.50;10381915;28;20057;-64
2024/02/04 11:11:58;;;;;;;0.82;0.20;;;;;;;10.98;99.95;100855.19;10396751;28;20049;-65
2024/02/04 11:17:38;;;;;;;0.65;0.10;;;;;;;10.99;100.00;100843.53;10391543;28;20057;-65
2024/02/04 11:23:18;;;;;;;0.68;0.13;;;;;;;11.10;98.90;100844.47;10363902;28;20491;-65
2024/02/04 11:28:21;;;;;;;0.30;0.10;;;;;;;11.27;97.72;100840.56;10390017;28;20061;-64
2024/02/04 11:33:23;;;;;;;2.27;1.47;;;;;;;11.17;97.89;100836.00;10389008;28;20052;-66
2024/02/04 11:38:35;;;;;;;0.30;0.20;;;;;;;11.07;98.68;100847.34;10381670;28;20077;-65
2024/02/04 11:43:40;;;;;;;1.55;0.52;;;;;;;11.07;100.00;100836.69;10384696;28;20060;-66
2024/02/04 11:48:42;;;;;;;0.60;0.30;;;;;;;11.11;100.00;100856.84;10365850;28;21314;-65
2024/02/04 11:53:44;;;;;;;0.50;0.20;;;;;;;11.12;100.00;100837.22;10382719;28;20088;-65
2024/02/04 11:58:47;;;;;;;0.60;0.20;;;;;;;11.12;100.00;100837.22;10400408;28;20152;-66
2024/02/04 12:03:51;;;;;;;0.75;0.57;;;;;;;11.10;100.00;100840.97;10390467;28;20048;-66
2024/02/04 12:08:52;;;;;;;0.80;0.40;;;;;;;11.10;100.00;100811.66;10381142;28;20427;-66
2024/02/04 12:13:55;;;;;;;1.15;0.20;;;;;;;11.18;100.00;100821.75;10376639;28;20840;-65
2024/02/04 12:18:57;;;;;;;0.98;0.30;;;;;;;11.48;99.84;100818.59;10394238;28;20442;-65
2024/02/04 12:23:59;;;;;;;1.42;0.28;;;;;;;11.49;97.63;100809.63;10383930;28;20151;-65
2024/02/04 12:29:01;;;;;;;2.25;1.13;;;;;;;11.63;97.49;100798.78;10372605;28;20127;-65
2024/02/04 12:34:02;;;;;;;0.52;0.20;;;;;;;11.70;96.19;100806.31;10386255;28;20052;-65
2024/02/04 12:39:07;;;;;;;0.28;0.20;;;;;;;11.52;97.64;100796.06;10383650;28;20778;-66
2024/02/04 12:44:08;;;;;;;0.63;0.20;;;;;;;11.59;97.59;100805.31;10373582;28;20116;-65
2024/02/04 12:49:17;;;;;;;2.08;0.30;;;;;;;11.76;97.56;100793.34;10389274;28;20053;-65
2024/02/04 12:54:21;;;;;;;0.60;0.30;;;;;;;11.71;95.72;100800.00;10390843;28;20056;-64
2024/02/04 12:59:28;;;;;;;0.30;0.20;;;;;;;11.49;96.46;100793.63;10380778;28;20095;-65
2024/02/04 13:04:41;;;;;;;0.50;0.20;;;;;;;11.53;96.85;100791.59;10367578;28;20095;-66
2024/02/04 13:09:44;;;;;;;0.93;0.30;;;;;;;11.46;98.67;100784.06;10388443;28;20050;-65
2024/02/04 13:14:47;;;;;;;0.47;0.20;;;;;;;11.47;98.91;100784.91;10390618;28;20048;-66
2024/02/04 13:19:48;;;;;;;0.85;0.30;;;;;;;11.41;98.74;100770.22;10391663;28;20431;-66
2024/02/04 13:24:50;;;;;;;0.28;0.20;;;;;;;11.44;99.79;100774.47;10399461;28;20051;-66
2024/02/04 13:29:51;;;;;;;0.70;0.40;;;;;;;11.47;99.50;100779.59;10396831;28;21231;-66
2024/02/04 13:34:53;;;;;;;1.27;0.68;;;;;;;11.50;99.92;100766.88;10394233;28;20049;-65
2024/02/04 13:40:10;;;;;;;1.95;0.47;;;;;;;11.61;97.55;100758.03;10398352;28;20053;-64
2024/02/04 13:45:15;;;;;;;1.65;1.00;;;;;;;11.79;97.44;100768.25;10401068;28;20054;-66
2024/02/04 13:50:19;;;;;;;1.30;0.40;;;;;;;11.77;97.33;100770.19;10379154;28;20049;-65
2024/02/04 13:55:21;;;;;;;0.63;0.28;;;;;;;11.59;98.15;100783.97;10381506;28;20168;-66
2024/02/04 14:00:25;;;;;;;1.43;0.97;;;;;;;11.58;98.35;100787.59;10393021;28;22603;-66
2024/02/04 14:05:26;;;;;;;0.52;0.25;;;;;;;11.46;100.00;100778.72;10406335;28;20053;-66
2024/02/04 14:10:28;;;;;;;0.98;0.60;;;;;;;11.37;100.00;100768.75;10388369;28;20541;-64
2024/02/04 14:15:30;;;;;;;0.60;0.45;;;;;;;11.31;100.00;100770.06;10390553;28;20088;-65
2024/02/04 14:20:32;;;;;;;0.68;0.28;;;;;;;11.22;100.00;100753.94;10392614;28;20052;-65
2024/02/04 14:25:36;;;;;;;0.20;0.10;;;;;;;11.30;100.00;100760.38;10365253;28;20160;-64
2024/02/04 14:30:37;;;;;;;0.85;0.30;;;;;;;11.36;100.00;100775.03;10397061;28;20680;-66
2024/02/04 14:35:39;;;;;;;1.23;0.20;;;;;;;11.45;100.00;100770.84;10399422;28;20088;-65
2024/02/04 14:40:41;;;;;;;0.65;0.10;;;;;;;11.28;100.00;100764.97;10399141;28;20060;-65
2024/02/04 14:45:43;;;;;;;0.55;0.25;;;;;;;11.35;100.00;100775.16;10372772;28;20057;-65
2024/02/04 14:50:48;;;;;;;0.70;0.10;;;;;;;11.39;100.00;100787.31;10393777;28;20063;-66
2024/02/04 14:55:49;;;;;;;0.50;0.30;;;;;;;11.40;99.47;100768.53;10396921;28;20130;-64
2024/02/04 15:00:54;;;;;;;0.47;0.10;;;;;;;11.44;99.09;100769.13;10394856;28;20493;-65
2024/02/04 15:05:56;;;;;;;0.52;0.20;;;;;;;11.44;99.85;100769.13;10399469;28;20057;-66
2024/02/04 15:10:57;;;;;;;1.30;0.20;;;;;;;11.48;98.77;100762.59;10396154;28;20049;-66
2024/02/04 15:16:01;;;;;;;0.63;0.10;;;;;;;11.46;99.27;100775.22;10391568;28;20057;-65
2024/02/04 15:21:03;;;;;;;0.30;0.10;;;;;;;11.39;99.43;100784.63;10384258;28;20497;-65
2024/02/04 15:26:09;;;;;;;0.10;0.10;;;;;;;11.41;98.97;100782.69;10379011;28;20139;-65
2024/02/04 15:31:14;;;;;;;1.08;0.00;;;;;;;11.45;98.58;100777.03;10396516;28;20091;-64
2024/02/04 15:36:16;;;;;;;0.20;0.00;;;;;;;11.47;98.34;100768.94;10391525;28;20200;-65
2024/02/04 15:41:20;;;;;;;0.63;0.20;;;;;;;11.48;99.16;100770.59;10373783;28;20057;-64
2024/02/04 15:46:23;;;;;;;0.40;0.00;;;;;;;11.43;99.75;100775.44;10378945;28;20053;-65
2024/02/04 15:51:25;;;;;;;0.35;0.10;;;;;;;11.36;99.82;100751.06;10384790;28;20053;-65
2024/02/04 15:56:32;;;;;;;0.52;0.10;;;;;;;11.13;98.76;100699.53;10391910;28;20052;-64
2024/02/04 16:01:35;;;;;;;0.80;0.50;;;;;;;11.36;98.90;100734.22;10388937;28;20136;-65
2024/02/04 16:06:38;;;;;;;1.63;0.77;;;;;;;11.41;98.95;100745.38;10394835;28;20049;-66
2024/02/04 16:11:59;;;;;;;0.43;0.20;;;;;;;11.31;98.96;100732.75;10367521;28;20067;-65
2024/02/04 16:17:04;;;;;;;2.05;0.22;;;;;;;11.32;99.09;100745.13;10390940;28;20084;-66
2024/02/04 16:22:05;;;;;;;1.33;1.13;;;;;;;11.35;98.89;100769.84;10385828;28;20052;-65
2024/02/04 16:27:07;;;;;;;0.40;0.20;;;;;;;11.37;99.16;100770.59;10385244;28;20060;-65
2024/02/04 16:32:11;;;;;;;0.60;0.10;;;;;;;11.35;98.79;100781.38;10374675;28;20056;-64
2024/02/04 16:37:12;;;;;;;0.97;0.30;;;;;;;11.34;99.12;100752.16;10382534;28;20569;-65
2024/02/04 16:42:15;;;;;;;0.40;0.17;;;;;;;11.35;99.50;100759.16;10371783;28;20726;-65
2024/02/04 16:47:18;;;;;;;0.60;0.30;;;;;;;11.34;100.00;100768.16;10393219;28;20059;-66
2024/02/04 16:52:20;;;;;;;1.00;0.40;;;;;;;11.35;100.00;100760.03;10391875;28;20049;-65
2024/02/04 16:57:22;;;;;;;0.30;0.10;;;;;;;11.24;100.00;100758.16;10382131;28;20057;-66
2024/02/04 17:02:27;;;;;;;1.08;0.43;;;;;;;11.28;100.00;100762.31;10364250;28;20604;-65
2024/02/04 17:07:30;;;;;;;1.10;0.57;;;;;;;11.22;100.00;100760.09;10357966;28;20048;-66
2024/02/04 17:12:32;;;;;;;0.73;0.22;;;;;;;11.19;100.00;100748.84;10367297;28;20139;-65
2024/02/04 17:17:35;;;;;;;0.68;0.30;;;;;;;11.12;100.00;100751.09;10363802;28;20041;-64
2024/02/04 17:22:38;;;;;;;0.43;0.20;;;;;;;11.09;100.00;100754.00;10394606;28;20060;-64
2024/02/04 17:27:43;;;;;;;1.38;0.45;;;;;;;11.11;100.00;100760.06;10393312;28;20041;-66
2024/02/04 17:32:47;;;;;;;0.38;0.20;;;;;;;11.07;99.89;100745.28;10393508;28;20045;-64
2024/02/04 17:37:50;;;;;;;0.60;0.17;;;;;;;11.05;99.32;100748.06;10379017;28;20081;-66
2024/02/04 17:42:54;;;;;;;0.47;0.20;;;;;;;11.15;98.78;100745.53;10372416;28;20061;-65
2024/02/04 17:47:58;;;;;;;0.88;0.20;;;;;;;11.13;98.65;100755.47;10398568;28;20049;-65
2024/02/04 17:52:59;;;;;;;0.95;0.28;;;;;;;11.11;98.56;100736.94;10390762;28;20076;-64
2024/02/04 17:58:03;;;;;;;0.60;0.25;;;;;;;11.09;99.11;100724.69;10395022;28;20063;-68
2024/02/04 18:03:06;;;;;;;0.35;0.10;;;;;;;11.02;99.69;100731.44;10391897;28;20538;-64
2024/02/04 18:08:07;;;;;;;0.25;0.10;;;;;;;10.99;99.43;100734.31;10396135;28;20124;-64
2024/02/04 18:13:10;;;;;;;4.53;2.03;;;;;;;11.01;99.29;100735.09;10375918;28;20526;-63
2024/02/04 18:18:11;;;;;;;2.45;1.50;;;;;;;11.01;98.93;100722.59;10377371;28;20167;-65
2024/02/04 18:23:13;;;;;;;0.95;0.20;;;;;;;10.90;98.52;100712.75;10362955;28;20156;-65
2024/02/04 18:28:19;;;;;;;0.60;0.28;;;;;;;11.01;98.70;100721.75;10389513;28;20053;-65
2024/02/04 18:33:21;;;;;;;0.60;0.30;;;;;;;11.01;98.42;100719.09;10378969;28;20054;-66
2024/02/04 18:38:22;;;;;;;0.50;0.20;;;;;;;11.00;98.16;100715.56;10391885;28;20096;-65
2024/02/04 18:43:24;;;;;;;0.43;0.10;;;;;;;11.03;97.92;100727.81;10396955;28;20164;-64
2024/02/04 18:48:26;;;;;;;0.77;0.38;;;;;;;11.03;97.36;100714.50;10393074;28;20053;-63
2024/02/04 18:53:30;;;;;;;1.10;0.63;;;;;;;11.06;97.17;100725.75;10394328;28;20079;-64
2024/02/04 18:58:33;;;;;;;0.60;0.20;;;;;;;11.05;97.04;100709.88;10398092;28;20045;-63
2024/02/04 19:03:35;;;;;;;2.67;0.53;;;;;;;11.01;97.46;100693.31;10383714;28;20531;-65
2024/02/04 19:08:37;;;;;;;0.70;0.20;;;;;;;11.03;97.82;100695.84;10403547;28;20061;-64
2024/02/04 19:13:38;;;;;;;0.43;0.20;;;;;;;10.98;98.11;100709.50;10400400;28;20053;-65
2024/02/04 19:18:40;;;;;;;0.98;0.45;;;;;;;11.00;97.34;100701.41;10393054;28;20061;-64
2024/02/04 19:23:41;;;;;;;0.88;0.10;;;;;;;10.98;96.72;100701.53;10396790;28;20551;-65
2024/02/04 19:28:43;;;;;;;0.30;0.10;;;;;;;10.94;96.05;100698.25;10391789;28;20124;-64
2024/02/04 19:33:46;;;;;;;0.77;0.20;;;;;;;10.96;95.80;100695.47;10386376;28;20057;-64
2024/02/04 19:38:48;;;;;;;0.82;0.10;;;;;;;10.96;95.01;100706.97;10388191;28;20615;-64
2024/02/04 19:43:49;;;;;;;0.30;0.10;;;;;;;10.99;94.68;100691.72;10401259;28;20758;-65
2024/02/04 19:48:52;;;;;;;0.15;0.10;;;;;;;10.89;94.33;100683.56;10390594;28;20057;-64
2024/02/04 19:53:55;;;;;;;0.45;0.00;;;;;;;10.95;93.37;100699.94;10377946;28;20053;-65
2024/02/04 19:59:03;;;;;;;0.75;0.10;;;;;;;10.96;93.17;100706.97;10396396;28;20056;-64
2024/02/04 20:04:05;;;;;;;0.22;0.00;;;;;;;10.96;93.04;100706.97;10399851;28;20060;-65
2024/02/04 20:09:07;;;;;;;0.20;0.10;;;;;;;10.96;92.90;100708.78;10393948;28;20548;-63
2024/02/04 20:14:09;;;;;;;0.30;0.10;;;;;;;11.05;92.49;100715.22;10393081;28;20068;-65
2024/02/04 20:19:10;;;;;;;0.30;0.13;;;;;;;10.99;92.02;100710.34;10391420;28;20187;-65
2024/02/04 20:24:11;;;;;;;1.70;1.38;;;;;;;10.99;92.29;100711.22;10393963;28;20500;-65
2024/02/04 20:29:14;;;;;;;0.10;0.00;;;;;;;10.98;92.32;100719.34;10360907;28;20067;-64
2024/02/04 20:34:16;;;;;;;0.52;0.10;;;;;;;10.88;92.59;100719.16;10393851;28;20140;-64
2024/02/04 20:39:19;;;;;;;0.40;0.10;;;;;;;10.91;92.53;100713.59;10396110;28;20086;-65
2024/02/04 20:44:21;;;;;;;0.93;0.13;;;;;;;10.91;91.74;100719.78;10387704;28;20191;-65
2024/02/04 20:49:23;;;;;;;1.92;0.20;;;;;;;10.94;92.24;100719.56;10390600;28;20629;-65
2024/02/04 20:54:25;;;;;;;0.30;0.10;;;;;;;10.98;92.01;100722.00;10390618;28;20143;-64
2024/02/04 20:59:29;;;;;;;1.17;0.85;;;;;;;10.95;91.36;100737.22;10399022;28;20067;-64
2024/02/04 21:04:30;;;;;;;0.20;0.10;;;;;;;10.93;92.15;100733.84;10372386;28;20124;-64
2024/02/04 21:09:38;;;;;;;0.50;0.20;;;;;;;10.99;91.68;100729.00;10389886;28;20061;-65
2024/02/04 21:14:39;;;;;;;0.10;0.00;;;;;;;10.99;91.37;100761.84;10394419;28;20206;-64
2024/02/04 21:19:44;;;;;;;0.57;0.13;;;;;;;10.98;91.61;100759.28;10385100;28;20044;-64
2024/02/04 21:24:48;;;;;;;0.65;0.20;;;;;;;11.09;92.84;100754.00;10389480;28;20522;-66
2024/02/04 21:29:50;;;;;;;0.57;0.20;;;;;;;11.13;91.87;100742.16;10382787;28;20404;-65
2024/02/04 21:34:51;;;;;;;1.58;0.55;;;;;;;11.09;91.05;100738.88;10379908;28;20055;-64
2024/02/04 21:39:53;;;;;;;0.52;0.10;;;;;;;11.04;91.14;100738.34;10391931;28;20053;-65
2024/02/04 21:44:55;;;;;;;1.33;0.00;;;;;;;11.03;91.27;100739.31;10401423;28;20049;-66
2024/02/04 21:49:56;;;;;;;3.92;0.25;;;;;;;11.04;91.72;100737.50;10396100;28;20220;-66
2024/02/04 21:55:03;;;;;;;0.93;0.10;;;;;;;11.03;91.63;100731.31;10392104;28;20043;-66
2024/02/04 22:00:08;;;;;;;0.30;0.10;;;;;;;11.02;91.73;100731.44;10336854;28;20719;-65
2024/02/04 22:05:09;;;;;;;1.10;0.55;;;;;;;10.90;91.56;100715.41;10363625;28;20297;-64
2024/02/04 22:10:11;;;;;;;0.00;0.00;;;;;;;10.92;92.23;100716.13;10392433;28;20059;-64
2024/02/04 22:15:12;;;;;;;0.10;0.00;;;;;;;10.92;92.43;100709.97;10388949;28;20203;-64
2024/02/04 22:20:15;;;;;;;0.08;0.00;;;;;;;10.86;92.82;100700.63;10393665;28;20533;-64
2024/02/04 22:25:24;;;;;;;0.30;0.10;;;;;;;10.87;92.78;100696.13;10395348;28;20073;-64
2024/02/04 22:30:27;;;;;;;0.57;0.20;;;;;;;10.83;93.20;100690.19;10395384;28;20037;-65
2024/02/04 22:35:28;;;;;;;0.10;0.00;;;;;;;10.86;93.22;100684.66;10392132;28;20056;-65
2024/02/04 22:40:30;;;;;;;0.30;0.10;;;;;;;10.79;93.64;100702.03;10387475;28;20049;-65
2024/02/04 22:45:32;;;;;;;0.35;0.10;;;;;;;10.81;93.92;100691.28;10390429;28;20056;-65
2024/02/04 22:50:34;;;;;;;1.38;0.10;;;;;;;10.79;93.74;100691.38;10389706;28;20546;-64
2024/02/04 22:55:39;;;;;;;0.22;0.10;;;;;;;10.81;93.95;100697.47;10395804;28;20061;-65
2024/02/04 23:00:40;;;;;;;0.20;0.10;;;;;;;10.75;94.12;100698.75;10389250;28;20059;-64
2024/02/04 23:05:42;;;;;;;0.10;0.10;;;;;;;10.74;94.29;100690.91;10396385;28;20049;-66